Time;durP1;ratioP1;P1;durP2;ratioP2;P2;SDS_P1;SDS_P2;PMS_P1;PMS_P2;Temp;Humidity;BMP_temperature;BMP_pressure;BME280_temperature;BME280_humidity;BME280_pressure;Samples;Min_cycle;Max_cycle;Signal;HPM_P1;HPM_P2
2022/01/01 00:00:24;;;;;;;16.08;7.32;;;16.50;59.70;;;;;;4971765;28;20023;-57
2022/01/01 00:02:50;;;;;;;18.85;9.10;;;16.50;59.80;;;;;;4977722;28;20364;-56
2022/01/01 00:05:16;;;;;;;15.57;8.00;;;16.50;59.80;;;;;;4968825;28;20030;-57
2022/01/01 00:07:44;;;;;;;17.10;10.13;;;16.50;59.80;;;;;;4974273;28;20045;-55
2022/01/01 00:10:10;;;;;;;19.67;10.00;;;16.50;59.80;;;;;;4970812;28;20042;-58
2022/01/01 00:12:36;;;;;;;19.38;10.90;;;16.50;59.70;;;;;;4963927;28;20026;-55
2022/01/01 00:15:03;;;;;;;19.13;10.48;;;16.50;59.70;;;;;;4963512;28;20043;-55
2022/01/01 00:17:29;;;;;;;19.58;10.73;;;16.50;59.70;;;;;;4951574;28;20051;-55
2022/01/01 00:19:56;;;;;;;21.30;11.27;;;16.50;59.70;;;;;;4921459;28;20043;-56
2022/01/01 00:22:22;;;;;;;21.55;11.02;;;16.50;59.60;;;;;;4923347;28;20035;-56
2022/01/01 00:24:48;;;;;;;19.23;10.50;;;16.50;59.70;;;;;;4943039;28;20312;-57
2022/01/01 00:27:14;;;;;;;21.30;10.35;;;16.50;59.60;;;;;;4942003;28;20032;-56
2022/01/01 00:29:41;;;;;;;18.10;9.20;;;16.50;59.50;;;;;;4944336;28;20032;-57
2022/01/01 00:32:07;;;;;;;14.05;7.97;;;16.50;59.50;;;;;;4941974;28;20051;-57
2022/01/01 00:34:35;;;;;;;16.42;8.23;;;16.50;59.50;;;;;;4943922;28;20040;-55
2022/01/01 00:37:01;;;;;;;16.73;8.02;;;16.50;59.50;;;;;;4942522;28;20430;-56
2022/01/01 00:39:27;;;;;;;15.70;7.43;;;16.50;59.50;;;;;;4942955;28;20031;-55
2022/01/01 00:41:53;;;;;;;15.60;7.90;;;16.50;59.50;;;;;;4939990;28;20031;-57
2022/01/01 00:44:19;;;;;;;15.23;6.80;;;16.50;59.50;;;;;;4944314;28;20613;-55
2022/01/01 00:46:45;;;;;;;18.15;7.55;;;16.50;59.60;;;;;;4941773;28;20023;-57
2022/01/01 00:49:12;;;;;;;13.00;6.43;;;16.50;59.60;;;;;;4939964;28;20054;-57
2022/01/01 00:51:38;;;;;;;15.73;6.05;;;16.40;59.50;;;;;;4942053;28;20027;-56
2022/01/01 00:54:04;;;;;;;12.43;6.63;;;16.50;59.60;;;;;;4944194;28;20031;-55
2022/01/01 00:56:30;;;;;;;9.38;5.35;;;16.50;59.60;;;;;;4943016;28;20407;-56
2022/01/01 00:58:56;;;;;;;13.68;6.40;;;16.50;59.60;;;;;;4943166;28;20027;-56
2022/01/01 01:01:23;;;;;;;11.20;5.57;;;16.50;59.60;;;;;;4941146;28;20031;-56
2022/01/01 01:03:49;;;;;;;12.73;5.80;;;16.50;59.60;;;;;;4942991;28;20035;-56
2022/01/01 01:06:15;;;;;;;14.10;5.55;;;16.50;59.50;;;;;;4940896;28;20031;-55
2022/01/01 01:08:42;;;;;;;14.30;6.32;;;16.50;59.50;;;;;;4942971;28;20034;-55
2022/01/01 01:11:08;;;;;;;13.18;6.38;;;16.50;59.50;;;;;;4942808;28;20483;-57
2022/01/01 01:13:36;;;;;;;12.98;6.97;;;16.50;59.50;;;;;;4943898;28;20034;-54
2022/01/01 01:16:02;;;;;;;12.90;6.47;;;16.50;59.40;;;;;;4941730;28;20783;-55
2022/01/01 01:18:29;;;;;;;14.02;6.68;;;16.50;59.40;;;;;;4964176;28;20403;-56
2022/01/01 01:20:55;;;;;;;14.20;6.75;;;16.50;59.40;;;;;;4964154;28;20039;-53
2022/01/01 01:23:21;;;;;;;16.13;7.40;;;16.50;59.30;;;;;;4967551;28;20023;-55
2022/01/01 01:25:47;;;;;;;12.00;6.93;;;16.50;59.30;;;;;;4941628;28;20427;-56
2022/01/01 01:28:14;;;;;;;15.32;6.95;;;16.50;59.40;;;;;;4957242;28;20506;-55
2022/01/01 01:30:42;;;;;;;13.15;6.63;;;16.50;59.40;;;;;;4968279;28;20025;-56
2022/01/01 01:33:10;;;;;;;14.50;6.88;;;16.50;59.40;;;;;;4977413;28;20058;-56
2022/01/01 01:35:36;;;;;;;16.30;7.78;;;16.50;59.30;;;;;;4960191;28;20031;-57
2022/01/01 01:38:03;;;;;;;12.00;6.65;;;16.50;59.30;;;;;;4970702;28;20027;-57
2022/01/01 01:40:29;;;;;;;13.85;6.72;;;16.50;59.30;;;;;;4951726;28;20027;-57
2022/01/01 01:42:56;;;;;;;13.23;6.85;;;16.50;59.40;;;;;;4963513;28;20350;-55
2022/01/01 01:45:27;;;;;;;14.02;6.25;;;16.50;59.30;;;;;;4965981;28;21410;-57
2022/01/01 01:47:53;;;;;;;14.65;6.35;;;16.50;59.30;;;;;;4959042;28;20038;-54
2022/01/01 01:50:20;;;;;;;8.85;5.10;;;16.50;59.20;;;;;;4962391;28;20464;-55
2022/01/01 01:52:51;;;;;;;11.43;5.38;;;16.40;59.10;;;;;;4954479;28;20023;-57
2022/01/01 01:55:17;;;;;;;7.47;4.07;;;16.40;58.90;;;;;;4965868;28;20554;-55
2022/01/01 01:57:44;;;;;;;12.85;4.15;;;16.40;58.70;;;;;;4974494;28;20026;-57
2022/01/01 02:03:09;;;;;;;7.95;3.38;;;16.40;58.30;;;;;;4969110;28;20033;-57
2022/01/01 02:05:36;;;;;;;9.60;3.65;;;16.40;58.30;;;;;;4966654;28;20049;-57
2022/01/01 02:08:04;;;;;;;7.88;3.63;;;16.40;58.20;;;;;;4962733;28;20095;-57
2022/01/01 02:10:35;;;;;;;7.80;3.20;;;16.40;58.50;;;;;;4977577;28;20483;-55
2022/01/01 02:13:12;;;;;;;8.77;3.70;;;16.40;57.80;;;;;;4966085;28;20403;-55
2022/01/01 02:18:07;;;;;;;12.85;3.83;;;16.40;57.80;;;;;;4974467;28;20050;-57
2022/01/01 02:20:34;;;;;;;10.23;4.10;;;16.40;57.80;;;;;;4973057;28;20031;-55
2022/01/01 02:23:01;;;;;;;7.80;3.80;;;16.40;57.80;;;;;;4978980;28;20027;-56
2022/01/01 02:25:28;;;;;;;11.32;4.35;;;16.40;58.00;;;;;;4971047;28;20056;-56
2022/01/01 02:27:55;;;;;;;12.75;3.67;;;16.40;57.90;;;;;;4957842;28;20379;-55
2022/01/01 02:30:22;;;;;;;10.48;3.95;;;16.40;57.80;;;;;;4942150;28;20043;-55
2022/01/01 02:32:48;;;;;;;9.40;3.58;;;16.40;57.90;;;;;;4956142;28;20522;-55
2022/01/01 02:35:17;;;;;;;9.43;4.07;;;16.40;57.90;;;;;;4956375;28;20034;-56
2022/01/01 02:37:44;;;;;;;10.35;4.05;;;16.40;57.90;;;;;;4957845;28;20022;-55
2022/01/01 02:40:11;;;;;;;12.88;3.65;;;16.40;57.90;;;;;;4952938;28;20020;-55
2022/01/01 02:42:38;;;;;;;10.45;3.80;;;16.40;57.90;;;;;;4965019;28;20026;-58
2022/01/01 02:45:08;;;;;;;12.75;4.57;;;16.50;58.00;;;;;;4954437;28;20407;-55
2022/01/01 02:47:35;;;;;;;18.58;4.00;;;16.50;58.00;;;;;;4957430;28;20043;-57
2022/01/01 02:50:03;;;;;;;10.40;4.25;;;16.50;58.00;;;;;;4970158;28;20041;-57
2022/01/01 02:52:30;;;;;;;10.13;3.80;;;16.50;57.80;;;;;;4956977;28;20031;-57
2022/01/01 02:54:56;;;;;;;11.13;3.78;;;16.50;57.70;;;;;;4969712;28;20107;-55
2022/01/01 02:57:23;;;;;;;12.82;3.40;;;16.50;57.60;;;;;;4933942;28;20578;-56
2022/01/01 02:59:49;;;;;;;14.32;3.88;;;16.50;57.70;;;;;;4949498;28;20036;-55
2022/01/01 03:02:15;;;;;;;11.77;3.72;;;16.50;57.60;;;;;;4965007;28;20889;-55
2022/01/01 03:04:42;;;;;;;13.82;4.15;;;16.50;57.40;;;;;;4953815;28;20038;-55
2022/01/01 03:07:08;;;;;;;10.70;4.03;;;16.40;57.40;;;;;;4957178;28;20027;-54
2022/01/01 03:09:34;;;;;;;13.77;3.70;;;16.40;57.40;;;;;;4938199;28;20035;-51
2022/01/01 03:12:06;;;;;;;11.60;4.68;;;16.40;57.40;;;;;;4960375;28;20035;-54
2022/01/01 03:14:33;;;;;;;9.85;4.18;;;16.40;57.40;;;;;;4980921;28;20030;-57
2022/01/01 03:16:59;;;;;;;12.02;3.75;;;16.40;57.60;;;;;;4957271;28;20058;-55
2022/01/01 03:19:26;;;;;;;9.65;3.60;;;16.40;57.70;;;;;;4949565;28;20018;-53
2022/01/01 03:21:52;;;;;;;10.80;3.75;;;16.40;57.80;;;;;;4957460;28;20026;-55
2022/01/01 03:24:18;;;;;;;7.63;3.15;;;16.40;57.80;;;;;;4973521;28;20034;-56
2022/01/01 03:26:45;;;;;;;11.23;4.00;;;16.40;57.70;;;;;;4975376;28;20030;-55
2022/01/01 03:29:11;;;;;;;8.35;3.30;;;16.40;57.60;;;;;;4977620;28;20587;-57
2022/01/01 03:31:37;;;;;;;10.55;3.35;;;16.40;57.60;;;;;;4979319;28;20040;-55
2022/01/01 03:34:04;;;;;;;10.68;3.40;;;16.40;57.50;;;;;;4954158;28;20030;-57
2022/01/01 03:36:30;;;;;;;10.00;3.50;;;16.40;57.40;;;;;;4972004;28;20035;-54
2022/01/01 03:38:57;;;;;;;13.10;4.53;;;16.40;57.40;;;;;;4962177;28;20026;-55
2022/01/01 03:41:24;;;;;;;8.60;3.22;;;16.40;57.40;;;;;;4960513;28;20046;-55
2022/01/01 03:43:50;;;;;;;9.45;2.58;;;16.40;57.30;;;;;;4956379;28;20034;-54
2022/01/01 03:46:16;;;;;;;6.85;2.92;;;16.40;57.40;;;;;;4958247;28;20475;-54
2022/01/01 03:48:43;;;;;;;11.02;3.40;;;16.30;57.30;;;;;;4959436;28;20035;-55
2022/01/01 03:51:09;;;;;;;8.38;2.67;;;16.40;57.30;;;;;;4963987;28;20034;-53
2022/01/01 03:53:35;;;;;;;8.98;3.33;;;16.40;57.20;;;;;;4965905;28;20034;-57
2022/01/01 03:56:02;;;;;;;10.43;2.65;;;16.30;57.20;;;;;;4981463;28;20034;-57
2022/01/01 03:58:28;;;;;;;9.95;3.17;;;16.30;57.10;;;;;;4966711;28;20483;-56
2022/01/01 04:00:55;;;;;;;8.15;2.85;;;16.30;57.20;;;;;;4956131;28;20464;-58
2022/01/01 04:03:21;;;;;;;10.70;2.60;;;16.30;57.10;;;;;;4961550;28;20038;-57
2022/01/01 04:05:48;;;;;;;12.63;2.72;;;16.30;57.10;;;;;;4945398;28;20047;-54
2022/01/01 04:08:14;;;;;;;8.30;2.88;;;16.30;57.00;;;;;;4960715;28;20030;-55
2022/01/01 04:10:41;;;;;;;8.25;2.60;;;16.30;56.80;;;;;;4935954;29;20043;-56
2022/01/01 04:13:09;;;;;;;7.57;2.50;;;16.30;57.30;;;;;;4948723;28;20054;-55
2022/01/01 04:15:36;;;;;;;10.68;2.35;;;16.30;56.70;;;;;;4941271;28;20046;-55
2022/01/01 04:18:09;;;;;;;15.95;2.83;;;16.30;56.70;;;;;;4961288;28;20518;-57
2022/01/01 04:20:35;;;;;;;9.65;2.75;;;16.30;56.90;;;;;;4969117;28;20046;-55
2022/01/01 04:23:08;;;;;;;8.70;2.78;;;16.20;56.30;;;;;;4952043;28;20403;-55
2022/01/01 04:25:34;;;;;;;9.35;2.85;;;16.20;56.10;;;;;;4962329;28;20049;-55
2022/01/01 04:28:00;;;;;;;11.00;2.75;;;16.30;56.30;;;;;;4959019;28;20031;-55
2022/01/01 04:30:28;;;;;;;11.48;2.70;;;16.20;56.20;;;;;;4959783;28;20030;-55
2022/01/01 04:32:55;;;;;;;11.40;2.63;;;16.30;56.30;;;;;;4963149;28;20038;-55
2022/01/01 04:35:22;;;;;;;12.00;2.63;;;16.30;56.30;;;;;;4974357;28;20033;-56
2022/01/01 04:37:48;;;;;;;8.02;2.50;;;16.30;56.30;;;;;;4967931;28;20046;-54
2022/01/01 04:40:14;;;;;;;7.13;2.65;;;16.30;56.20;;;;;;4960326;28;20043;-56
2022/01/01 04:42:41;;;;;;;10.30;2.42;;;16.30;56.10;;;;;;4932717;29;20035;-55
2022/01/01 04:45:07;;;;;;;14.00;3.17;;;16.30;55.90;;;;;;4967219;28;20035;-57
2022/01/01 04:47:34;;;;;;;10.57;2.35;;;16.30;55.90;;;;;;4960443;28;20854;-55
2022/01/01 04:50:03;;;;;;;7.15;2.42;;;16.30;55.90;;;;;;4951187;28;20039;-53
2022/01/01 04:52:29;;;;;;;7.47;2.30;;;16.30;56.00;;;;;;4956830;28;20030;-56
2022/01/01 04:54:55;;;;;;;10.63;2.20;;;16.30;56.00;;;;;;4955982;28;20035;-54
2022/01/01 04:57:29;;;;;;;12.18;2.50;;;16.30;56.00;;;;;;4940927;28;20760;-52
2022/01/01 04:59:56;;;;;;;;;;;16.30;55.90;;;;;;4960544;28;20023;-55
2022/01/01 05:02:22;;;;;;;11.07;2.35;;;16.30;56.00;;;;;;4969897;28;19933;-55
2022/01/01 05:04:49;;;;;;;10.02;2.58;;;16.30;55.70;;;;;;4961379;28;20026;-55
2022/01/01 05:07:15;;;;;;;14.07;3.15;;;16.30;55.60;;;;;;4939692;28;20026;-56
2022/01/01 05:09:41;;;;;;;19.23;8.18;;;16.30;55.50;;;;;;4950463;28;20046;-54
2022/01/01 05:12:07;;;;;;;11.82;4.40;;;16.20;55.40;;;;;;4953262;28;20042;-55
2022/01/01 05:14:35;;;;;;;10.85;3.28;;;16.20;55.40;;;;;;4956059;28;20027;-55
2022/01/01 05:17:01;;;;;;;17.15;3.17;;;16.20;55.40;;;;;;4945999;28;20049;-57
2022/01/01 05:19:28;;;;;;;9.02;2.70;;;16.20;55.50;;;;;;4962260;28;20035;-57
2022/01/01 05:21:56;;;;;;;12.18;2.47;;;16.20;55.60;;;;;;4967240;28;20391;-55
2022/01/01 05:24:23;;;;;;;7.85;2.50;;;16.20;55.60;;;;;;4968181;28;20031;-55
2022/01/01 05:26:49;;;;;;;9.50;2.15;;;16.20;55.70;;;;;;4971527;28;20414;-57
2022/01/01 05:29:16;;;;;;;8.82;2.25;;;16.20;55.70;;;;;;4970551;28;20389;-53
2022/01/01 05:31:43;;;;;;;8.82;2.38;;;16.20;55.60;;;;;;4972604;28;20043;-55
2022/01/01 05:34:09;;;;;;;6.75;2.50;;;16.20;55.60;;;;;;4973456;28;20487;-53
2022/01/01 05:36:35;;;;;;;11.82;3.22;;;16.20;55.60;;;;;;4975360;28;20031;-55
2022/01/01 05:39:01;;;;;;;6.13;2.30;;;16.20;55.60;;;;;;4968972;28;20418;-54
2022/01/01 05:41:27;;;;;;;9.55;2.65;;;16.20;55.70;;;;;;4977840;28;20490;-55
2022/01/01 05:43:54;;;;;;;10.02;3.20;;;16.20;55.70;;;;;;4976322;28;20030;-53
2022/01/01 05:46:20;;;;;;;7.65;2.35;;;16.20;55.70;;;;;;4969310;28;20046;-55
2022/01/01 05:48:46;;;;;;;8.63;2.63;;;16.20;55.70;;;;;;4960201;28;20035;-55
2022/01/01 05:51:13;;;;;;;11.15;3.05;;;16.20;55.70;;;;;;4964273;28;20027;-53
2022/01/01 05:53:39;;;;;;;8.65;2.78;;;16.20;55.80;;;;;;4940893;28;20062;-55
2022/01/01 05:56:05;;;;;;;7.25;2.38;;;16.20;55.80;;;;;;4976829;28;20034;-56
2022/01/01 05:58:32;;;;;;;6.70;2.20;;;16.20;55.70;;;;;;4969769;28;20906;-56
2022/01/01 06:00:58;;;;;;;8.85;2.28;;;16.20;55.70;;;;;;4966000;28;20018;-55
2022/01/01 06:03:24;;;;;;;7.50;2.25;;;16.20;55.70;;;;;;4961649;28;20031;-55
2022/01/01 06:05:52;;;;;;;6.38;2.40;;;16.20;55.80;;;;;;4962686;28;20038;-53
2022/01/01 06:08:19;;;;;;;8.85;2.22;;;16.10;55.70;;;;;;4963835;28;20038;-52
2022/01/01 06:10:45;;;;;;;10.02;2.47;;;16.10;55.70;;;;;;4966628;28;20039;-55
2022/01/01 06:13:11;;;;;;;8.15;2.60;;;16.10;55.70;;;;;;4961365;28;20487;-55
2022/01/01 06:15:38;;;;;;;8.95;2.90;;;16.10;55.80;;;;;;4968095;28;20037;-55
2022/01/01 06:18:04;;;;;;;6.63;2.38;;;16.10;55.80;;;;;;4944230;28;20039;-54
2022/01/01 06:20:30;;;;;;;8.25;2.63;;;16.20;56.00;;;;;;4935055;28;20051;-55
2022/01/01 06:22:56;;;;;;;11.68;3.08;;;16.10;56.00;;;;;;4940132;28;20027;-55
2022/01/01 06:25:22;;;;;;;6.88;2.90;;;16.10;56.10;;;;;;4939994;28;20038;-55
2022/01/01 06:27:49;;;;;;;6.85;2.55;;;16.10;56.10;;;;;;4908927;28;20050;-54
2022/01/01 06:30:15;;;;;;;8.98;2.75;;;16.10;56.60;;;;;;4939087;28;20035;-55
2022/01/01 06:32:41;;;;;;;10.43;2.75;;;16.10;56.10;;;;;;4941128;28;20039;-56
2022/01/01 06:35:07;;;;;;;6.50;2.30;;;16.10;56.20;;;;;;4926667;28;20046;-55
2022/01/01 06:37:33;;;;;;;7.22;2.60;;;16.10;56.20;;;;;;4940358;28;20027;-55
2022/01/01 06:40:00;;;;;;;8.07;2.20;;;16.00;56.20;;;;;;4941318;28;20490;-56
2022/01/01 06:42:26;;;;;;;8.90;3.10;;;16.00;56.20;;;;;;4941651;28;20384;-55
2022/01/01 06:44:52;;;;;;;8.93;2.47;;;16.00;56.10;;;;;;4939761;28;20050;-54
2022/01/01 06:47:18;;;;;;;8.23;2.60;;;16.00;56.00;;;;;;4938569;28;20040;-55
2022/01/01 06:49:44;;;;;;;10.77;3.00;;;16.00;56.00;;;;;;4943679;28;20498;-55
2022/01/01 06:52:10;;;;;;;13.32;2.78;;;16.00;56.00;;;;;;4945720;28;20343;-54
2022/01/01 06:54:37;;;;;;;10.60;2.92;;;16.00;56.00;;;;;;4944712;28;20476;-56
2022/01/01 06:57:03;;;;;;;7.35;2.70;;;16.00;56.50;;;;;;4941203;28;20042;-55
2022/01/01 06:59:29;;;;;;;9.68;2.42;;;16.00;56.00;;;;;;4945971;28;20031;-55
2022/01/01 07:01:56;;;;;;;10.77;2.50;;;16.00;56.10;;;;;;4941656;28;20023;-55
2022/01/01 07:04:22;;;;;;;10.80;2.58;;;16.00;56.10;;;;;;4944560;28;20400;-55
2022/01/01 07:06:48;;;;;;;13.55;2.78;;;16.00;56.10;;;;;;4945868;28;20042;-55
2022/01/01 07:09:15;;;;;;;6.70;2.28;;;16.00;56.10;;;;;;4944236;28;20545;-55
2022/01/01 07:11:42;;;;;;;8.25;2.75;;;16.00;56.10;;;;;;4942534;28;20031;-54
2022/01/01 07:14:11;;;;;;;6.90;2.58;;;16.00;56.00;;;;;;4945349;28;20027;-52
2022/01/01 07:16:37;;;;;;;8.10;2.58;;;16.00;56.10;;;;;;4946667;28;20034;-57
2022/01/01 07:19:03;;;;;;;10.10;2.50;;;16.00;56.10;;;;;;4957340;28;20043;-55
2022/01/01 07:21:30;;;;;;;8.15;2.22;;;16.00;56.00;;;;;;4963950;28;20038;-52
2022/01/01 07:23:56;;;;;;;8.15;2.58;;;16.00;55.90;;;;;;4976570;28;20018;-54
2022/01/01 07:26:22;;;;;;;13.25;2.95;;;16.00;55.90;;;;;;4967064;28;20054;-55
2022/01/01 07:28:48;;;;;;;4.78;2.05;;;15.90;55.90;;;;;;4948396;28;20352;-55
2022/01/01 07:31:14;;;;;;;7.10;2.63;;;15.90;55.90;;;;;;4944474;28;20031;-56
2022/01/01 07:33:41;;;;;;;7.15;2.25;;;15.90;55.90;;;;;;4952117;28;20383;-54
2022/01/01 07:36:07;;;;;;;8.88;2.20;;;15.90;55.90;;;;;;4954530;28;20027;-55
2022/01/01 07:38:33;;;;;;;9.63;2.75;;;15.90;55.90;;;;;;4955560;28;20038;-53
2022/01/01 07:40:59;;;;;;;8.40;2.03;;;15.90;55.90;;;;;;4953761;28;20038;-55
2022/01/01 07:43:27;;;;;;;7.03;2.40;;;16.00;56.00;;;;;;4956410;28;20347;-55
2022/01/01 07:45:53;;;;;;;8.07;2.03;;;15.90;55.90;;;;;;4954818;28;20023;-53
2022/01/01 07:48:20;;;;;;;5.95;1.98;;;16.00;55.90;;;;;;4963145;28;20034;-55
2022/01/01 07:50:46;;;;;;;7.15;2.13;;;15.90;55.80;;;;;;4956207;28;20038;-55
2022/01/01 07:53:12;;;;;;;6.65;2.00;;;16.00;55.80;;;;;;4936500;28;20034;-53
2022/01/01 07:55:38;;;;;;;4.63;1.83;;;16.00;55.80;;;;;;4974684;28;20880;-53
2022/01/01 07:58:05;;;;;;;8.80;2.10;;;15.90;55.70;;;;;;4946477;28;20038;-55
2022/01/01 08:00:32;;;;;;;6.30;1.73;;;15.90;55.80;;;;;;4957744;28;20493;-57
2022/01/01 08:02:58;;;;;;;7.78;2.85;;;16.00;55.80;;;;;;4952965;28;20039;-56
2022/01/01 08:05:24;;;;;;;5.55;2.08;;;16.00;55.90;;;;;;4955823;28;20391;-55
2022/01/01 08:07:51;;;;;;;8.75;2.50;;;16.00;55.90;;;;;;4974111;28;20467;-54
2022/01/01 08:10:20;;;;;;;5.40;2.08;;;16.00;56.00;;;;;;4956258;28;20419;-55
2022/01/01 08:12:47;;;;;;;8.77;2.53;;;16.00;56.00;;;;;;4945736;28;20483;-55
2022/01/01 08:15:13;;;;;;;5.95;2.35;;;16.00;56.00;;;;;;4945408;28;20043;-55
2022/01/01 08:17:39;;;;;;;6.38;2.58;;;16.00;56.00;;;;;;4965936;28;20034;-54
2022/01/01 08:20:06;;;;;;;6.32;2.22;;;16.00;55.90;;;;;;4946029;28;20042;-54
2022/01/01 08:22:33;;;;;;;9.02;3.17;;;16.00;56.40;;;;;;4968540;28;20015;-56
2022/01/01 08:25:00;;;;;;;7.90;2.78;;;16.00;56.00;;;;;;4947341;28;20035;-54
2022/01/01 08:27:27;;;;;;;7.25;2.15;;;16.00;56.00;;;;;;4949160;28;20510;-56
2022/01/01 08:29:53;;;;;;;9.32;2.55;;;16.00;56.10;;;;;;4971478;28;20530;-53
2022/01/01 08:32:19;;;;;;;3.92;2.00;;;16.00;56.20;;;;;;4951361;28;20031;-54
2022/01/01 08:34:45;;;;;;;4.43;1.98;;;16.00;56.10;;;;;;4952654;28;20023;-53
2022/01/01 08:37:12;;;;;;;6.20;2.30;;;16.00;56.10;;;;;;4945466;28;20044;-53
2022/01/01 08:39:38;;;;;;;4.85;1.88;;;16.00;56.10;;;;;;4957090;28;20051;-54
2022/01/01 08:42:05;;;;;;;8.38;2.90;;;16.00;56.10;;;;;;4958864;28;20042;-54
2022/01/01 08:44:32;;;;;;;4.93;2.47;;;16.00;56.10;;;;;;4950814;28;20035;-52
2022/01/01 08:46:58;;;;;;;10.32;3.53;;;16.00;56.10;;;;;;4938186;28;20039;-51
2022/01/01 08:49:24;;;;;;;7.97;2.30;;;16.00;56.10;;;;;;4967329;28;20030;-55
2022/01/01 08:51:50;;;;;;;6.70;2.38;;;16.00;56.20;;;;;;4976298;28;20034;-54
2022/01/01 08:54:16;;;;;;;5.28;2.17;;;16.10;56.20;;;;;;4960268;28;20378;-52
2022/01/01 08:56:43;;;;;;;7.10;1.95;;;16.10;56.10;;;;;;4962765;28;20038;-54
2022/01/01 08:59:10;;;;;;;4.22;1.88;;;16.10;56.00;;;;;;4959521;28;20031;-55
2022/01/01 09:01:36;;;;;;;3.67;1.65;;;16.10;56.00;;;;;;4954784;28;20038;-53
2022/01/01 09:04:03;;;;;;;6.45;2.25;;;16.10;56.00;;;;;;4964657;28;20391;-56
2022/01/01 09:06:29;;;;;;;8.10;1.95;;;16.20;55.90;;;;;;4964760;28;20050;-56
2022/01/01 09:08:56;;;;;;;6.43;2.28;;;16.20;56.40;;;;;;4935348;28;20407;-54
2022/01/01 09:11:22;;;;;;;6.07;2.30;;;16.20;55.90;;;;;;4951716;28;20391;-54
2022/01/01 09:13:48;;;;;;;3.75;1.80;;;16.20;55.90;;;;;;4944902;28;20033;-55
2022/01/01 09:16:18;;;;;;;6.32;1.95;;;16.30;55.80;;;;;;4948948;28;20034;-53
2022/01/01 09:18:46;;;;;;;4.28;1.70;;;16.20;55.60;;;;;;4952899;28;20467;-55
2022/01/01 09:21:14;;;;;;;5.55;2.00;;;16.30;55.60;;;;;;4966235;28;20038;-55
2022/01/01 09:23:41;;;;;;;4.75;1.90;;;16.30;55.60;;;;;;4944036;28;20476;-54
2022/01/01 09:26:07;;;;;;;6.97;2.10;;;16.40;55.60;;;;;;4969024;28;20023;-56
2022/01/01 09:28:34;;;;;;;4.40;1.95;;;16.40;55.50;;;;;;4937206;28;20365;-57
2022/01/01 09:31:01;;;;;;;8.48;1.92;;;16.40;55.50;;;;;;4957842;28;20049;-55
2022/01/01 09:33:31;;;;;;;3.15;1.70;;;16.40;55.50;;;;;;4964477;28;20038;-58
2022/01/01 09:35:59;;;;;;;7.88;2.00;;;16.40;55.50;;;;;;4959836;28;20495;-57
2022/01/01 09:38:25;;;;;;;4.10;1.85;;;16.50;55.30;;;;;;4959896;28;20380;-55
2022/01/01 09:40:56;;;;;;;5.70;2.00;;;16.50;55.30;;;;;;4963769;28;20034;-55
2022/01/01 09:43:23;;;;;;;10.32;4.78;;;16.50;55.40;;;;;;4972807;28;20033;-55
2022/01/01 09:45:51;;;;;;;5.70;2.70;;;16.50;55.40;;;;;;4955431;28;20023;-56
2022/01/01 09:48:20;;;;;;;3.67;2.22;;;16.50;55.30;;;;;;4960282;28;20031;-56
2022/01/01 09:50:54;;;;;;;5.18;2.05;;;16.50;55.40;;;;;;4966067;28;20482;-57
2022/01/01 09:53:23;;;;;;;6.53;2.30;;;16.60;55.40;;;;;;4953080;28;20034;-57
2022/01/01 09:55:50;;;;;;;3.70;1.90;;;16.60;55.40;;;;;;4960440;28;20079;-56
2022/01/01 09:58:22;;;;;;;4.20;1.80;;;16.60;55.20;;;;;;4961672;28;20042;-57
2022/01/01 10:00:49;;;;;;;5.22;2.15;;;16.60;55.20;;;;;;4970628;28;20046;-55
2022/01/01 10:03:16;;;;;;;6.88;2.30;;;16.60;55.30;;;;;;4956266;28;20031;-57
2022/01/01 10:06:02;;;;;;;6.13;2.92;;;16.60;55.30;;;;;;4949184;28;20031;-57
2022/01/01 10:08:28;;;;;;;3.17;1.67;;;16.70;55.10;;;;;;4962741;28;20039;-57
2022/01/01 10:10:55;;;;;;;11.45;1.92;;;16.70;55.20;;;;;;4976182;28;20023;-57
2022/01/01 10:13:41;;;;;;;9.57;2.47;;;16.70;55.20;;;;;;4961025;28;20514;-55
2022/01/01 10:16:10;;;;;;;5.85;1.80;;;16.70;55.10;;;;;;4961047;28;20414;-52
2022/01/01 10:18:41;;;;;;;5.00;1.80;;;16.70;55.20;;;;;;4953450;28;20038;-55
2022/01/01 10:21:10;;;;;;;6.30;2.13;;;16.80;55.20;;;;;;4958721;28;20030;-57
2022/01/01 10:23:38;;;;;;;5.32;1.92;;;16.80;55.20;;;;;;4958598;28;20027;-57
2022/01/01 10:29:12;;;;;;;7.03;2.20;;;16.80;55.10;;;;;;4965592;28;20069;-57
2022/01/01 10:31:40;;;;;;;5.43;2.08;;;16.80;55.00;;;;;;4961068;28;20045;-58
2022/01/01 10:34:14;;;;;;;6.13;2.20;;;16.80;55.10;;;;;;4957392;28;20031;-57
2022/01/01 10:36:44;;;;;;;5.20;2.22;;;16.80;54.90;;;;;;4963538;28;20038;-58
2022/01/01 10:39:14;;;;;;;7.20;2.50;;;16.90;55.00;;;;;;4957738;28;20034;-57
2022/01/01 10:41:52;;;;;;;3.30;1.98;;;16.90;55.00;;;;;;4960111;28;20030;-55
2022/01/01 10:44:31;;;;;;;7.07;2.17;;;16.90;54.90;;;;;;4958400;28;20387;-55
2022/01/01 10:47:07;;;;;;;4.05;2.03;;;16.90;54.90;;;;;;4961699;28;20030;-57
2022/01/01 10:52:24;;;;;;;4.95;2.10;;;17.00;54.90;;;;;;4956291;28;20031;-56
2022/01/01 10:55:06;;;;;;;6.95;2.20;;;17.00;54.80;;;;;;4940748;28;20476;-56
2022/01/01 10:57:37;;;;;;;11.48;2.92;;;17.00;54.80;;;;;;4945862;28;20501;-55
2022/01/01 11:00:17;;;;;;;5.07;2.10;;;17.00;54.80;;;;;;4959904;28;20027;-55
2022/01/01 11:02:55;;;;;;;5.03;2.38;;;17.00;54.80;;;;;;4958077;28;20046;-52
2022/01/01 11:05:32;;;;;;;5.60;2.20;;;17.00;54.80;;;;;;4961939;28;20482;-55
2022/01/01 11:08:00;;;;;;;7.70;2.85;;;17.00;54.80;;;;;;4958352;28;20526;-51
2022/01/01 11:10:27;;;;;;;5.72;2.50;;;17.00;54.90;;;;;;4959293;28;20054;-54
2022/01/01 11:12:54;;;;;;;8.05;2.60;;;17.00;54.90;;;;;;4935491;28;20517;-54
2022/01/01 11:15:21;;;;;;;8.00;2.38;;;17.00;54.90;;;;;;4961649;28;20043;-56
2022/01/01 11:17:48;;;;;;;4.88;2.63;;;17.00;55.00;;;;;;4967504;28;20541;-54
2022/01/01 11:20:16;;;;;;;5.78;2.30;;;17.00;55.00;;;;;;4972664;28;20035;-53
2022/01/01 11:22:43;;;;;;;4.40;2.75;;;17.00;55.00;;;;;;4958846;28;20439;-56
2022/01/01 11:25:09;;;;;;;9.57;2.85;;;17.00;54.90;;;;;;4964508;28;20388;-53
2022/01/01 11:27:36;;;;;;;9.07;3.25;;;17.00;54.80;;;;;;4952043;28;20548;-55
2022/01/01 11:30:06;;;;;;;4.57;2.42;;;17.00;54.80;;;;;;4975576;28;20030;-55
2022/01/01 11:33:08;;;;;;;4.78;2.42;;;17.00;54.70;;;;;;4961813;28;20026;-55
2022/01/01 11:35:38;;;;;;;5.82;2.38;;;17.00;54.70;;;;;;4955181;28;20026;-54
2022/01/01 11:38:08;;;;;;;6.68;3.10;;;17.00;54.80;;;;;;4963374;28;20042;-55
2022/01/01 11:40:41;;;;;;;5.88;2.47;;;16.90;54.80;;;;;;4947669;28;20035;-53
2022/01/01 11:43:30;;;;;;;4.82;2.47;;;16.90;54.80;;;;;;4971824;28;20042;-55
2022/01/01 11:46:04;;;;;;;5.72;2.58;;;16.90;54.90;;;;;;4942826;28;20032;-55
2022/01/01 11:48:35;;;;;;;3.88;2.38;;;16.90;54.90;;;;;;4941651;28;20047;-54
2022/01/01 11:51:32;;;;;;;4.50;2.60;;;16.90;55.00;;;;;;4950081;28;20608;-55
2022/01/01 11:54:21;;;;;;;5.05;2.50;;;16.90;55.20;;;;;;4952180;28;20331;-53
2022/01/01 11:56:50;;;;;;;4.88;2.20;;;16.90;55.20;;;;;;4958057;28;20042;-53
2022/01/01 11:59:28;;;;;;;4.15;1.75;;;16.80;55.20;;;;;;4954884;28;20039;-52
2022/01/01 12:02:18;;;;;;;6.65;2.40;;;16.80;55.20;;;;;;4974562;28;20042;-55
2022/01/01 12:04:50;;;;;;;5.07;2.10;;;16.80;55.40;;;;;;4981012;28;20085;-55
2022/01/01 12:07:16;;;;;;;7.38;2.30;;;16.80;55.40;;;;;;4959858;28;20035;-52
2022/01/01 12:10:01;;;;;;;3.50;1.92;;;16.80;55.50;;;;;;4943219;28;20046;-56
2022/01/01 12:12:52;;;;;;;5.22;2.22;;;16.70;55.50;;;;;;4958553;28;20027;-55
2022/01/01 12:15:24;;;;;;;7.47;2.50;;;16.70;56.00;;;;;;4967491;28;20026;-55
2022/01/01 12:18:11;;;;;;;7.00;2.30;;;16.70;55.70;;;;;;4969288;28;20513;-55
2022/01/01 12:20:40;;;;;;;4.07;2.10;;;16.70;55.70;;;;;;4971914;28;20419;-55
2022/01/01 12:23:16;;;;;;;4.00;2.63;;;16.70;55.80;;;;;;4980523;28;20081;-53
2022/01/01 12:25:44;;;;;;;4.68;3.00;;;16.70;55.80;;;;;;4974326;28;20086;-55
2022/01/01 12:28:18;;;;;;;10.55;3.60;;;16.80;55.90;;;;;;4976075;28;20030;-55
2022/01/01 12:31:03;;;;;;;5.85;2.83;;;16.70;56.10;;;;;;4944615;28;20380;-53
2022/01/01 12:33:39;;;;;;;5.22;3.20;;;16.70;56.10;;;;;;4974166;28;20027;-54
2022/01/01 12:36:07;;;;;;;6.53;3.40;;;16.70;56.20;;;;;;4978162;28;20045;-55
2022/01/01 12:38:39;;;;;;;9.55;3.13;;;16.70;56.20;;;;;;4978155;28;20030;-55
2022/01/01 12:41:21;;;;;;;5.85;3.13;;;16.70;56.30;;;;;;4974088;28;20057;-54
2022/01/01 12:43:48;;;;;;;7.15;3.40;;;16.70;56.20;;;;;;4963653;28;20403;-54
2022/01/01 12:46:18;;;;;;;5.70;2.88;;;16.70;56.30;;;;;;4958785;28;20442;-52
2022/01/01 12:48:45;;;;;;;8.10;3.30;;;16.70;56.40;;;;;;4954979;28;20487;-55
2022/01/01 12:51:14;;;;;;;8.70;3.30;;;16.80;56.40;;;;;;4970753;28;20034;-54
2022/01/01 12:53:41;;;;;;;5.75;3.42;;;16.70;56.40;;;;;;4965642;28;20023;-54
2022/01/01 12:56:10;;;;;;;14.82;6.95;;;16.70;56.40;;;;;;4944183;28;20050;-53
2022/01/01 12:58:39;;;;;;;14.82;7.72;;;16.70;56.50;;;;;;4961019;28;20324;-52